Portada
METAR-TAF:

METAR-TAF

Aeroports :

Clemson, Carolina del Sud, Estats Units d'Amèrica

latitud: 34-40-20N, longitud: 082-52-53W, altitud: 272 m

Observació

L'informe es va fer fa 34 minuts, a les 23:54 UTC
Vent 5 kt del Oest/Sud-Oest
Temperatura 27°C
Humitat 51%
Pressió 1014 hPa
Visibilitat: 16.1 km
Escasses núvols a una alçada de 8500 ft

METAR: KCEU 202354Z AUTO 25005KT 10SM FEW085 27/16 A2995 RMK AO2 SLP132 60007 T02670156 10294 20233 55002

Hora: 20:28 (00:28 UTC)


TAF: manca

Observacions i pronòstics meteorològics de més de 4000 aeroports (METAR i TAF).

Les estacions disponibles són els punts grocs i vermells al mapa.

Posi el ratolí al punt desitjat per veure el nom de l'estació.

Feu clic per veure les observacions i els pronòstics meteorològics.

Per canviar el mapa: feu clic els botons verds amb una creu de color negre per apropar; al botó verd amb un guió per allunyar la imatge; o en les fletxes verdes per a mapes adjacents.


METAR-TAF: